sensor_id;sensor_type;location;lat;lon;timestamp;temperature;humidity
25668;DHT22;18003;-33.830;151.202;2022-12-18T00:01:38;18.40;99.90
25668;DHT22;18003;-33.830;151.202;2022-12-18T00:04:27;18.40;99.90
25668;DHT22;18003;-33.830;151.202;2022-12-18T00:06:57;18.40;99.90
25668;DHT22;18003;-33.830;151.202;2022-12-18T00:09:27;18.40;99.90
25668;DHT22;18003;-33.830;151.202;2022-12-18T00:11:57;18.40;99.90
25668;DHT22;18003;-33.830;151.202;2022-12-18T00:14:27;18.40;99.90
25668;DHT22;18003;-33.830;151.202;2022-12-18T00:16:57;18.40;99.90
25668;DHT22;18003;-33.830;151.202;2022-12-18T00:19:28;18.30;99.90
25668;DHT22;18003;-33.830;151.202;2022-12-18T00:21:58;18.30;99.90
25668;DHT22;18003;-33.830;151.202;2022-12-18T00:24:28;18.30;99.90
25668;DHT22;18003;-33.830;151.202;2022-12-18T00:26:58;18.30;99.90
25668;DHT22;18003;-33.830;151.202;2022-12-18T00:29:28;18.30;99.90
25668;DHT22;18003;-33.830;151.202;2022-12-18T00:31:58;18.30;99.90
25668;DHT22;18003;-33.830;151.202;2022-12-18T00:34:29;18.30;99.90
25668;DHT22;18003;-33.830;151.202;2022-12-18T00:36:59;18.30;99.90
25668;DHT22;18003;-33.830;151.202;2022-12-18T00:39:28;18.40;99.90
25668;DHT22;18003;-33.830;151.202;2022-12-18T00:41:59;18.40;99.90
25668;DHT22;18003;-33.830;151.202;2022-12-18T00:44:46;18.40;99.90
25668;DHT22;18003;-33.830;151.202;2022-12-18T00:47:16;18.40;99.90
25668;DHT22;18003;-33.830;151.202;2022-12-18T00:49:46;18.40;99.90
25668;DHT22;18003;-33.830;151.202;2022-12-18T00:52:16;18.50;99.90
25668;DHT22;18003;-33.830;151.202;2022-12-18T00:54:46;18.50;99.90
25668;DHT22;18003;-33.830;151.202;2022-12-18T00:57:16;18.50;99.90
25668;DHT22;18003;-33.830;151.202;2022-12-18T00:59:46;18.50;99.90
25668;DHT22;18003;-33.830;151.202;2022-12-18T01:02:16;18.50;99.90
25668;DHT22;18003;-33.830;151.202;2022-12-18T01:04:46;18.50;99.90
25668;DHT22;18003;-33.830;151.202;2022-12-18T01:07:17;18.50;99.90
25668;DHT22;18003;-33.830;151.202;2022-12-18T01:09:47;18.40;99.90
25668;DHT22;18003;-33.830;151.202;2022-12-18T01:12:17;18.40;99.90
25668;DHT22;18003;-33.830;151.202;2022-12-18T01:14:47;18.40;99.90
25668;DHT22;18003;-33.830;151.202;2022-12-18T01:17:17;18.40;99.90
25668;DHT22;18003;-33.830;151.202;2022-12-18T01:19:47;18.30;99.90
25668;DHT22;18003;-33.830;151.202;2022-12-18T01:22:17;18.40;99.90
25668;DHT22;18003;-33.830;151.202;2022-12-18T01:24:47;18.30;99.90
25668;DHT22;18003;-33.830;151.202;2022-12-18T01:27:17;18.40;99.90
25668;DHT22;18003;-33.830;151.202;2022-12-18T01:29:47;18.40;99.90
25668;DHT22;18003;-33.830;151.202;2022-12-18T01:32:17;18.40;99.90
25668;DHT22;18003;-33.830;151.202;2022-12-18T01:34:47;18.40;99.90
25668;DHT22;18003;-33.830;151.202;2022-12-18T01:37:17;18.40;99.90
25668;DHT22;18003;-33.830;151.202;2022-12-18T01:39:47;18.40;99.90
25668;DHT22;18003;-33.830;151.202;2022-12-18T01:42:18;18.40;99.90
25668;DHT22;18003;-33.830;151.202;2022-12-18T01:45:04;18.40;99.90
25668;DHT22;18003;-33.830;151.202;2022-12-18T01:47:49;18.40;99.90
25668;DHT22;18003;-33.830;151.202;2022-12-18T01:53:06;18.40;99.90
25668;DHT22;18003;-33.830;151.202;2022-12-18T01:55:42;18.40;99.90
25668;DHT22;18003;-33.830;151.202;2022-12-18T01:58:05;18.40;99.90
25668;DHT22;18003;-33.830;151.202;2022-12-18T02:00:35;18.40;99.90
25668;DHT22;18003;-33.830;151.202;2022-12-18T02:03:05;18.40;99.90
25668;DHT22;18003;-33.830;151.202;2022-12-18T02:08:34;18.40;99.90
25668;DHT22;18003;-33.830;151.202;2022-12-18T02:13:46;18.30;99.90
25668;DHT22;18003;-33.830;151.202;2022-12-18T02:16:52;18.30;99.90
25668;DHT22;18003;-33.830;151.202;2022-12-18T02:19:27;18.30;99.90
25668;DHT22;18003;-33.830;151.202;2022-12-18T02:24:53;18.30;99.90
25668;DHT22;18003;-33.830;151.202;2022-12-18T02:27:16;18.30;99.90
25668;DHT22;18003;-33.830;151.202;2022-12-18T02:29:53;18.40;99.90
25668;DHT22;18003;-33.830;151.202;2022-12-18T02:32:29;18.40;99.90
25668;DHT22;18003;-33.830;151.202;2022-12-18T02:35:00;18.40;99.90
25668;DHT22;18003;-33.830;151.202;2022-12-18T02:37:32;18.50;99.90
25668;DHT22;18003;-33.830;151.202;2022-12-18T02:40:04;18.50;99.90
25668;DHT22;18003;-33.830;151.202;2022-12-18T02:42:34;18.50;99.90
25668;DHT22;18003;-33.830;151.202;2022-12-18T02:45:05;18.50;99.90
25668;DHT22;18003;-33.830;151.202;2022-12-18T02:47:39;18.50;99.90
25668;DHT22;18003;-33.830;151.202;2022-12-18T02:50:30;18.50;99.90
25668;DHT22;18003;-33.830;151.202;2022-12-18T02:53:10;18.60;99.90
25668;DHT22;18003;-33.830;151.202;2022-12-18T02:58:37;18.60;99.90
25668;DHT22;18003;-33.830;151.202;2022-12-18T03:01:11;18.60;99.90
25668;DHT22;18003;-33.830;151.202;2022-12-18T03:03:42;18.50;99.90
25668;DHT22;18003;-33.830;151.202;2022-12-18T03:06:18;18.50;99.90
25668;DHT22;18003;-33.830;151.202;2022-12-18T03:08:45;18.50;99.90
25668;DHT22;18003;-33.830;151.202;2022-12-18T03:11:16;18.50;99.90
25668;DHT22;18003;-33.830;151.202;2022-12-18T03:13:54;18.50;99.90
25668;DHT22;18003;-33.830;151.202;2022-12-18T03:16:26;18.60;99.90
25668;DHT22;18003;-33.830;151.202;2022-12-18T03:19:05;18.60;99.90
25668;DHT22;18003;-33.830;151.202;2022-12-18T03:21:40;18.60;99.90
25668;DHT22;18003;-33.830;151.202;2022-12-18T03:24:07;18.60;99.90
25668;DHT22;18003;-33.830;151.202;2022-12-18T03:26:40;18.60;99.90
25668;DHT22;18003;-33.830;151.202;2022-12-18T03:29:21;18.60;99.90
25668;DHT22;18003;-33.830;151.202;2022-12-18T03:31:49;18.60;99.90
25668;DHT22;18003;-33.830;151.202;2022-12-18T03:34:27;18.60;99.90
25668;DHT22;18003;-33.830;151.202;2022-12-18T03:36:52;18.60;99.90
25668;DHT22;18003;-33.830;151.202;2022-12-18T03:39:22;18.60;99.90
25668;DHT22;18003;-33.830;151.202;2022-12-18T03:42:39;18.60;99.90
25668;DHT22;18003;-33.830;151.202;2022-12-18T03:44:32;18.60;99.90
25668;DHT22;18003;-33.830;151.202;2022-12-18T03:47:08;18.60;99.90
25668;DHT22;18003;-33.830;151.202;2022-12-18T03:49:41;18.50;99.90
25668;DHT22;18003;-33.830;151.202;2022-12-18T03:52:13;18.50;99.90
25668;DHT22;18003;-33.830;151.202;2022-12-18T03:54:42;18.50;99.90
25668;DHT22;18003;-33.830;151.202;2022-12-18T03:57:16;18.50;99.90
25668;DHT22;18003;-33.830;151.202;2022-12-18T03:59:44;18.50;99.90
25668;DHT22;18003;-33.830;151.202;2022-12-18T04:02:16;18.50;99.90
25668;DHT22;18003;-33.830;151.202;2022-12-18T04:04:48;18.50;99.90
25668;DHT22;18003;-33.830;151.202;2022-12-18T04:07:19;18.50;99.90
25668;DHT22;18003;-33.830;151.202;2022-12-18T04:09:50;18.50;99.90
25668;DHT22;18003;-33.830;151.202;2022-12-18T04:12:23;18.50;99.90
25668;DHT22;18003;-33.830;151.202;2022-12-18T04:14:51;18.50;99.90
25668;DHT22;18003;-33.830;151.202;2022-12-18T04:17:21;18.50;99.90
25668;DHT22;18003;-33.830;151.202;2022-12-18T04:19:51;18.60;99.90
25668;DHT22;18003;-33.830;151.202;2022-12-18T04:22:21;18.60;99.90
25668;DHT22;18003;-33.830;151.202;2022-12-18T04:24:51;18.60;99.90
25668;DHT22;18003;-33.830;151.202;2022-12-18T04:27:21;18.60;99.90
25668;DHT22;18003;-33.830;151.202;2022-12-18T04:29:51;18.60;99.90
25668;DHT22;18003;-33.830;151.202;2022-12-18T04:32:21;18.60;99.90
25668;DHT22;18003;-33.830;151.202;2022-12-18T04:34:51;18.60;99.90
25668;DHT22;18003;-33.830;151.202;2022-12-18T04:37:22;18.60;99.90
25668;DHT22;18003;-33.830;151.202;2022-12-18T04:39:52;18.60;99.90
25668;DHT22;18003;-33.830;151.202;2022-12-18T04:42:22;18.60;99.90
25668;DHT22;18003;-33.830;151.202;2022-12-18T04:44:51;18.60;99.90
25668;DHT22;18003;-33.830;151.202;2022-12-18T04:47:22;18.60;99.90
25668;DHT22;18003;-33.830;151.202;2022-12-18T04:49:52;18.60;99.90
25668;DHT22;18003;-33.830;151.202;2022-12-18T04:52:22;18.70;99.90
25668;DHT22;18003;-33.830;151.202;2022-12-18T04:54:52;18.70;99.90
25668;DHT22;18003;-33.830;151.202;2022-12-18T04:57:22;18.60;99.90
25668;DHT22;18003;-33.830;151.202;2022-12-18T04:59:52;18.60;99.90
25668;DHT22;18003;-33.830;151.202;2022-12-18T05:02:22;18.70;99.90
25668;DHT22;18003;-33.830;151.202;2022-12-18T05:04:52;18.70;99.90
25668;DHT22;18003;-33.830;151.202;2022-12-18T05:07:22;18.70;99.90
25668;DHT22;18003;-33.830;151.202;2022-12-18T05:09:52;18.70;99.90
25668;DHT22;18003;-33.830;151.202;2022-12-18T05:12:25;18.70;99.90
25668;DHT22;18003;-33.830;151.202;2022-12-18T05:14:56;18.70;99.90
25668;DHT22;18003;-33.830;151.202;2022-12-18T05:17:26;18.70;99.90
25668;DHT22;18003;-33.830;151.202;2022-12-18T05:19:56;18.70;99.90
25668;DHT22;18003;-33.830;151.202;2022-12-18T05:22:26;18.70;99.90
25668;DHT22;18003;-33.830;151.202;2022-12-18T05:24:57;18.70;99.90
25668;DHT22;18003;-33.830;151.202;2022-12-18T05:27:27;18.60;99.90
25668;DHT22;18003;-33.830;151.202;2022-12-18T05:29:57;18.70;99.90
25668;DHT22;18003;-33.830;151.202;2022-12-18T05:32:27;18.70;99.90
25668;DHT22;18003;-33.830;151.202;2022-12-18T05:34:57;18.70;99.90
25668;DHT22;18003;-33.830;151.202;2022-12-18T05:37:26;18.80;99.90
25668;DHT22;18003;-33.830;151.202;2022-12-18T05:39:57;18.70;99.90
25668;DHT22;18003;-33.830;151.202;2022-12-18T05:42:27;18.80;99.90
25668;DHT22;18003;-33.830;151.202;2022-12-18T05:44:57;18.80;99.90
25668;DHT22;18003;-33.830;151.202;2022-12-18T05:47:27;18.70;99.90
25668;DHT22;18003;-33.830;151.202;2022-12-18T05:49:57;18.70;99.90
25668;DHT22;18003;-33.830;151.202;2022-12-18T05:52:28;18.70;99.90
25668;DHT22;18003;-33.830;151.202;2022-12-18T05:54:58;18.70;99.90
25668;DHT22;18003;-33.830;151.202;2022-12-18T05:57:28;18.80;99.90
25668;DHT22;18003;-33.830;151.202;2022-12-18T05:59:58;18.70;99.90
25668;DHT22;18003;-33.830;151.202;2022-12-18T06:02:28;18.70;99.90
25668;DHT22;18003;-33.830;151.202;2022-12-18T06:04:58;18.80;99.90
25668;DHT22;18003;-33.830;151.202;2022-12-18T06:07:28;18.80;99.90
25668;DHT22;18003;-33.830;151.202;2022-12-18T06:09:58;18.70;99.90
25668;DHT22;18003;-33.830;151.202;2022-12-18T06:12:28;18.70;99.90
25668;DHT22;18003;-33.830;151.202;2022-12-18T06:14:58;18.70;99.90
25668;DHT22;18003;-33.830;151.202;2022-12-18T06:17:30;18.70;99.90
25668;DHT22;18003;-33.830;151.202;2022-12-18T06:20:00;18.70;99.90
25668;DHT22;18003;-33.830;151.202;2022-12-18T06:22:31;18.70;99.90
25668;DHT22;18003;-33.830;151.202;2022-12-18T06:25:01;18.70;99.90
25668;DHT22;18003;-33.830;151.202;2022-12-18T06:27:31;18.70;99.90
25668;DHT22;18003;-33.830;151.202;2022-12-18T06:30:01;18.70;99.90
25668;DHT22;18003;-33.830;151.202;2022-12-18T06:32:31;18.70;99.90
25668;DHT22;18003;-33.830;151.202;2022-12-18T06:35:01;18.70;99.90
25668;DHT22;18003;-33.830;151.202;2022-12-18T06:37:32;18.70;99.90
25668;DHT22;18003;-33.830;151.202;2022-12-18T06:40:02;18.70;99.90
25668;DHT22;18003;-33.830;151.202;2022-12-18T06:42:32;18.70;99.90
25668;DHT22;18003;-33.830;151.202;2022-12-18T06:45:02;18.70;99.90
25668;DHT22;18003;-33.830;151.202;2022-12-18T06:47:32;18.70;99.90
25668;DHT22;18003;-33.830;151.202;2022-12-18T06:50:03;18.70;99.90
25668;DHT22;18003;-33.830;151.202;2022-12-18T06:52:33;18.70;99.90
25668;DHT22;18003;-33.830;151.202;2022-12-18T06:55:03;18.70;99.90
25668;DHT22;18003;-33.830;151.202;2022-12-18T06:57:35;18.70;99.90
25668;DHT22;18003;-33.830;151.202;2022-12-18T07:00:05;18.70;99.90
25668;DHT22;18003;-33.830;151.202;2022-12-18T07:02:36;18.70;99.90
25668;DHT22;18003;-33.830;151.202;2022-12-18T07:05:06;18.70;99.90
25668;DHT22;18003;-33.830;151.202;2022-12-18T07:07:36;18.70;99.90
25668;DHT22;18003;-33.830;151.202;2022-12-18T07:10:07;18.70;99.90
25668;DHT22;18003;-33.830;151.202;2022-12-18T07:12:37;18.70;99.90
25668;DHT22;18003;-33.830;151.202;2022-12-18T07:15:07;18.70;99.90
25668;DHT22;18003;-33.830;151.202;2022-12-18T07:17:37;18.70;99.90
25668;DHT22;18003;-33.830;151.202;2022-12-18T07:20:09;18.70;99.90
25668;DHT22;18003;-33.830;151.202;2022-12-18T07:22:39;18.70;99.90
25668;DHT22;18003;-33.830;151.202;2022-12-18T07:25:09;18.60;99.90
25668;DHT22;18003;-33.830;151.202;2022-12-18T07:27:39;18.70;99.90
25668;DHT22;18003;-33.830;151.202;2022-12-18T07:30:10;18.70;99.90
25668;DHT22;18003;-33.830;151.202;2022-12-18T07:32:40;18.70;99.90
25668;DHT22;18003;-33.830;151.202;2022-12-18T07:35:10;18.70;99.90
25668;DHT22;18003;-33.830;151.202;2022-12-18T07:37:40;18.70;99.90
25668;DHT22;18003;-33.830;151.202;2022-12-18T07:40:11;18.60;99.90
25668;DHT22;18003;-33.830;151.202;2022-12-18T07:42:41;18.60;99.90
25668;DHT22;18003;-33.830;151.202;2022-12-18T07:45:11;18.70;99.90
25668;DHT22;18003;-33.830;151.202;2022-12-18T07:47:41;18.70;99.90
25668;DHT22;18003;-33.830;151.202;2022-12-18T07:50:11;18.60;99.90
25668;DHT22;18003;-33.830;151.202;2022-12-18T07:52:41;18.60;99.90
25668;DHT22;18003;-33.830;151.202;2022-12-18T07:55:11;18.70;99.90
25668;DHT22;18003;-33.830;151.202;2022-12-18T07:57:41;18.60;99.90
25668;DHT22;18003;-33.830;151.202;2022-12-18T08:00:12;18.70;99.90
25668;DHT22;18003;-33.830;151.202;2022-12-18T08:02:43;18.70;99.90
25668;DHT22;18003;-33.830;151.202;2022-12-18T08:05:13;18.70;99.90
25668;DHT22;18003;-33.830;151.202;2022-12-18T08:07:43;18.70;99.90
25668;DHT22;18003;-33.830;151.202;2022-12-18T08:10:13;18.70;99.90
25668;DHT22;18003;-33.830;151.202;2022-12-18T08:12:43;18.70;99.90
25668;DHT22;18003;-33.830;151.202;2022-12-18T08:15:13;18.70;99.90
25668;DHT22;18003;-33.830;151.202;2022-12-18T08:17:44;18.70;99.90
25668;DHT22;18003;-33.830;151.202;2022-12-18T08:20:14;18.70;99.90
25668;DHT22;18003;-33.830;151.202;2022-12-18T08:22:45;18.70;99.90
25668;DHT22;18003;-33.830;151.202;2022-12-18T08:25:15;18.60;99.90
25668;DHT22;18003;-33.830;151.202;2022-12-18T08:27:45;18.60;99.90
25668;DHT22;18003;-33.830;151.202;2022-12-18T08:30:15;18.60;99.90
25668;DHT22;18003;-33.830;151.202;2022-12-18T08:32:45;18.60;99.90
25668;DHT22;18003;-33.830;151.202;2022-12-18T08:35:15;18.60;99.90
25668;DHT22;18003;-33.830;151.202;2022-12-18T08:37:45;18.60;99.90
25668;DHT22;18003;-33.830;151.202;2022-12-18T08:40:15;18.50;99.90
25668;DHT22;18003;-33.830;151.202;2022-12-18T08:42:45;18.60;99.90
25668;DHT22;18003;-33.830;151.202;2022-12-18T08:45:28;18.60;99.90
25668;DHT22;18003;-33.830;151.202;2022-12-18T08:47:59;18.60;99.90
25668;DHT22;18003;-33.830;151.202;2022-12-18T08:50:30;18.60;99.90
25668;DHT22;18003;-33.830;151.202;2022-12-18T08:52:59;18.60;99.90
25668;DHT22;18003;-33.830;151.202;2022-12-18T08:55:29;18.60;99.90
25668;DHT22;18003;-33.830;151.202;2022-12-18T08:58:00;18.70;99.90
25668;DHT22;18003;-33.830;151.202;2022-12-18T09:00:30;18.70;99.90
25668;DHT22;18003;-33.830;151.202;2022-12-18T09:03:02;18.60;99.90
25668;DHT22;18003;-33.830;151.202;2022-12-18T09:05:33;18.60;99.90
25668;DHT22;18003;-33.830;151.202;2022-12-18T09:08:03;18.60;99.90
25668;DHT22;18003;-33.830;151.202;2022-12-18T09:10:32;18.40;99.90
25668;DHT22;18003;-33.830;151.202;2022-12-18T09:13:02;18.40;99.90
25668;DHT22;18003;-33.830;151.202;2022-12-18T09:15:32;18.40;99.90
25668;DHT22;18003;-33.830;151.202;2022-12-18T09:18:02;18.40;99.90
25668;DHT22;18003;-33.830;151.202;2022-12-18T09:20:32;18.40;99.90
25668;DHT22;18003;-33.830;151.202;2022-12-18T09:23:02;18.40;99.90
25668;DHT22;18003;-33.830;151.202;2022-12-18T09:25:33;18.40;99.90
25668;DHT22;18003;-33.830;151.202;2022-12-18T09:28:11;18.40;99.90
25668;DHT22;18003;-33.830;151.202;2022-12-18T09:30:40;18.40;99.90
25668;DHT22;18003;-33.830;151.202;2022-12-18T09:33:10;18.40;99.90
25668;DHT22;18003;-33.830;151.202;2022-12-18T09:35:41;18.40;99.90
25668;DHT22;18003;-33.830;151.202;2022-12-18T09:38:13;18.40;99.90
25668;DHT22;18003;-33.830;151.202;2022-12-18T09:40:56;18.40;99.90
25668;DHT22;18003;-33.830;151.202;2022-12-18T09:46:07;18.40;99.90
25668;DHT22;18003;-33.830;151.202;2022-12-18T09:48:41;18.40;99.90
25668;DHT22;18003;-33.830;151.202;2022-12-18T09:51:19;18.40;99.90
25668;DHT22;18003;-33.830;151.202;2022-12-18T09:53:51;18.40;99.90
25668;DHT22;18003;-33.830;151.202;2022-12-18T09:56:20;18.40;99.90
25668;DHT22;18003;-33.830;151.202;2022-12-18T09:58:57;18.30;99.90
25668;DHT22;18003;-33.830;151.202;2022-12-18T10:01:23;18.30;99.90
25668;DHT22;18003;-33.830;151.202;2022-12-18T10:03:54;18.40;99.90
25668;DHT22;18003;-33.830;151.202;2022-12-18T10:14:43;18.40;99.90
25668;DHT22;18003;-33.830;151.202;2022-12-18T10:17:42;18.40;99.90
25668;DHT22;18003;-33.830;151.202;2022-12-18T10:20:13;18.40;99.90
25668;DHT22;18003;-33.830;151.202;2022-12-18T10:22:50;18.40;99.90
25668;DHT22;18003;-33.830;151.202;2022-12-18T10:28:17;18.40;99.90
25668;DHT22;18003;-33.830;151.202;2022-12-18T10:30:48;18.40;99.90
25668;DHT22;18003;-33.830;151.202;2022-12-18T10:33:20;18.40;99.90
25668;DHT22;18003;-33.830;151.202;2022-12-18T10:35:51;18.40;99.90
25668;DHT22;18003;-33.830;151.202;2022-12-18T10:38:30;18.40;99.90
25668;DHT22;18003;-33.830;151.202;2022-12-18T10:40:58;18.40;99.90
25668;DHT22;18003;-33.830;151.202;2022-12-18T10:43:35;18.40;99.90
25668;DHT22;18003;-33.830;151.202;2022-12-18T10:46:20;18.40;99.90
25668;DHT22;18003;-33.830;151.202;2022-12-18T10:48:53;18.40;99.90
25668;DHT22;18003;-33.830;151.202;2022-12-18T10:51:28;18.30;99.90
25668;DHT22;18003;-33.830;151.202;2022-12-18T10:54:25;18.30;99.90
25668;DHT22;18003;-33.830;151.202;2022-12-18T10:56:51;18.30;99.90
25668;DHT22;18003;-33.830;151.202;2022-12-18T10:59:22;18.30;99.90
25668;DHT22;18003;-33.830;151.202;2022-12-18T11:01:59;18.30;99.90
25668;DHT22;18003;-33.830;151.202;2022-12-18T11:04:31;18.30;99.90
25668;DHT22;18003;-33.830;151.202;2022-12-18T11:07:09;18.30;99.90
25668;DHT22;18003;-33.830;151.202;2022-12-18T11:09:40;18.40;99.90
25668;DHT22;18003;-33.830;151.202;2022-12-18T11:12:17;18.30;99.90
25668;DHT22;18003;-33.830;151.202;2022-12-18T11:14:49;18.30;99.90
25668;DHT22;18003;-33.830;151.202;2022-12-18T11:17:21;18.30;99.90
25668;DHT22;18003;-33.830;151.202;2022-12-18T11:19:59;18.30;99.90
25668;DHT22;18003;-33.830;151.202;2022-12-18T11:22:32;18.30;99.90
25668;DHT22;18003;-33.830;151.202;2022-12-18T11:25:06;18.30;99.90
25668;DHT22;18003;-33.830;151.202;2022-12-18T11:27:37;18.30;99.90
25668;DHT22;18003;-33.830;151.202;2022-12-18T11:30:28;18.30;99.90
25668;DHT22;18003;-33.830;151.202;2022-12-18T11:33:05;18.30;99.90
25668;DHT22;18003;-33.830;151.202;2022-12-18T11:43:55;18.30;99.90
25668;DHT22;18003;-33.830;151.202;2022-12-18T11:46:31;18.30;99.90
25668;DHT22;18003;-33.830;151.202;2022-12-18T11:49:01;18.30;99.90
25668;DHT22;18003;-33.830;151.202;2022-12-18T11:51:29;18.30;99.90
25668;DHT22;18003;-33.830;151.202;2022-12-18T11:53:59;18.30;99.90
25668;DHT22;18003;-33.830;151.202;2022-12-18T11:56:36;18.30;99.90
25668;DHT22;18003;-33.830;151.202;2022-12-18T11:59:24;18.30;99.90
25668;DHT22;18003;-33.830;151.202;2022-12-18T12:01:52;18.30;99.90
25668;DHT22;18003;-33.830;151.202;2022-12-18T12:07:04;18.30;99.90
25668;DHT22;18003;-33.830;151.202;2022-12-18T12:13:22;18.30;99.90
25668;DHT22;18003;-33.830;151.202;2022-12-18T12:15:37;18.30;99.90
25668;DHT22;18003;-33.830;151.202;2022-12-18T12:21:11;18.30;99.90
25668;DHT22;18003;-33.830;151.202;2022-12-18T12:26:45;18.30;99.90
25668;DHT22;18003;-33.830;151.202;2022-12-18T12:29:30;18.30;99.90
25668;DHT22;18003;-33.830;151.202;2022-12-18T12:32:07;18.30;99.90
25668;DHT22;18003;-33.830;151.202;2022-12-18T12:40:00;18.20;99.90
25668;DHT22;18003;-33.830;151.202;2022-12-18T12:42:45;18.20;99.90
25668;DHT22;18003;-33.830;151.202;2022-12-18T12:45:54;18.20;99.90
25668;DHT22;18003;-33.830;151.202;2022-12-18T12:51:22;18.20;99.90
25668;DHT22;18003;-33.830;151.202;2022-12-18T12:53:52;18.20;99.90
25668;DHT22;18003;-33.830;151.202;2022-12-18T12:56:26;18.20;99.90
25668;DHT22;18003;-33.830;151.202;2022-12-18T12:59:13;18.20;99.90
25668;DHT22;18003;-33.830;151.202;2022-12-18T13:04:43;18.20;99.90
25668;DHT22;18003;-33.830;151.202;2022-12-18T13:12:59;18.20;99.90
25668;DHT22;18003;-33.830;151.202;2022-12-18T13:15:45;18.20;99.90
25668;DHT22;18003;-33.830;151.202;2022-12-18T13:18:20;18.20;99.90
25668;DHT22;18003;-33.830;151.202;2022-12-18T13:21:02;18.20;99.90
25668;DHT22;18003;-33.830;151.202;2022-12-18T13:23:36;18.20;99.90
25668;DHT22;18003;-33.830;151.202;2022-12-18T13:34:19;18.20;99.90
25668;DHT22;18003;-33.830;151.202;2022-12-18T13:36:50;18.10;99.90
25668;DHT22;18003;-33.830;151.202;2022-12-18T13:39:24;18.10;99.90
25668;DHT22;18003;-33.830;151.202;2022-12-18T13:44:40;18.10;99.90
25668;DHT22;18003;-33.830;151.202;2022-12-18T13:47:27;18.20;99.90
25668;DHT22;18003;-33.830;151.202;2022-12-18T13:49:58;18.20;99.90
25668;DHT22;18003;-33.830;151.202;2022-12-18T13:52:33;18.10;99.90
25668;DHT22;18003;-33.830;151.202;2022-12-18T13:55:01;18.10;99.90
25668;DHT22;18003;-33.830;151.202;2022-12-18T13:57:34;18.10;99.90
25668;DHT22;18003;-33.830;151.202;2022-12-18T14:02:48;18.10;99.90
25668;DHT22;18003;-33.830;151.202;2022-12-18T14:05:28;18.10;99.90
25668;DHT22;18003;-33.830;151.202;2022-12-18T14:08:08;18.10;99.90
25668;DHT22;18003;-33.830;151.202;2022-12-18T14:10:44;18.20;99.90
25668;DHT22;18003;-33.830;151.202;2022-12-18T14:13:18;18.20;99.90
25668;DHT22;18003;-33.830;151.202;2022-12-18T14:15:47;18.20;99.90
25668;DHT22;18003;-33.830;151.202;2022-12-18T14:18:26;18.10;99.90
25668;DHT22;18003;-33.830;151.202;2022-12-18T14:20:59;18.20;99.90
25668;DHT22;18003;-33.830;151.202;2022-12-18T14:23:41;18.20;99.90
25668;DHT22;18003;-33.830;151.202;2022-12-18T14:26:27;18.20;99.90
25668;DHT22;18003;-33.830;151.202;2022-12-18T14:29:01;18.10;99.90
25668;DHT22;18003;-33.830;151.202;2022-12-18T14:31:32;18.10;99.90
25668;DHT22;18003;-33.830;151.202;2022-12-18T14:34:01;18.10;99.90
25668;DHT22;18003;-33.830;151.202;2022-12-18T14:36:32;18.10;99.90
25668;DHT22;18003;-33.830;151.202;2022-12-18T14:39:02;18.10;99.90
25668;DHT22;18003;-33.830;151.202;2022-12-18T14:41:32;18.10;99.90
25668;DHT22;18003;-33.830;151.202;2022-12-18T14:44:05;18.10;99.90
25668;DHT22;18003;-33.830;151.202;2022-12-18T14:46:35;18.10;99.90
25668;DHT22;18003;-33.830;151.202;2022-12-18T14:49:27;18.10;99.90
25668;DHT22;18003;-33.830;151.202;2022-12-18T14:51:57;18.10;99.90
25668;DHT22;18003;-33.830;151.202;2022-12-18T14:54:28;18.00;99.90
25668;DHT22;18003;-33.830;151.202;2022-12-18T14:57:20;18.00;99.90
25668;DHT22;18003;-33.830;151.202;2022-12-18T14:59:37;18.00;99.90
25668;DHT22;18003;-33.830;151.202;2022-12-18T15:05:03;18.00;99.90
25668;DHT22;18003;-33.830;151.202;2022-12-18T15:07:47;18.00;99.90
25668;DHT22;18003;-33.830;151.202;2022-12-18T15:10:22;18.00;99.90
25668;DHT22;18003;-33.830;151.202;2022-12-18T15:18:13;18.00;99.90
25668;DHT22;18003;-33.830;151.202;2022-12-18T15:21:10;18.00;99.90
25668;DHT22;18003;-33.830;151.202;2022-12-18T15:23:49;18.00;99.90
25668;DHT22;18003;-33.830;151.202;2022-12-18T15:26:20;18.00;99.90
25668;DHT22;18003;-33.830;151.202;2022-12-18T15:28:59;18.00;99.90
25668;DHT22;18003;-33.830;151.202;2022-12-18T15:31:35;18.00;99.90
25668;DHT22;18003;-33.830;151.202;2022-12-18T15:34:21;18.00;99.90
25668;DHT22;18003;-33.830;151.202;2022-12-18T15:36:52;18.00;99.90
25668;DHT22;18003;-33.830;151.202;2022-12-18T15:39:22;18.00;99.90
25668;DHT22;18003;-33.830;151.202;2022-12-18T15:41:52;17.90;99.90
25668;DHT22;18003;-33.830;151.202;2022-12-18T15:44:40;18.00;99.90
25668;DHT22;18003;-33.830;151.202;2022-12-18T15:47:11;18.00;99.90
25668;DHT22;18003;-33.830;151.202;2022-12-18T15:49:41;18.00;99.90
25668;DHT22;18003;-33.830;151.202;2022-12-18T15:52:12;18.00;99.90
25668;DHT22;18003;-33.830;151.202;2022-12-18T15:54:44;18.00;99.90
25668;DHT22;18003;-33.830;151.202;2022-12-18T15:57:31;18.00;99.90
25668;DHT22;18003;-33.830;151.202;2022-12-18T16:00:01;18.00;99.90
25668;DHT22;18003;-33.830;151.202;2022-12-18T16:02:31;18.00;99.90
25668;DHT22;18003;-33.830;151.202;2022-12-18T16:05:01;18.00;99.90
25668;DHT22;18003;-33.830;151.202;2022-12-18T16:07:31;18.00;99.90
25668;DHT22;18003;-33.830;151.202;2022-12-18T16:10:01;18.00;99.90
25668;DHT22;18003;-33.830;151.202;2022-12-18T16:12:31;18.00;99.90
25668;DHT22;18003;-33.830;151.202;2022-12-18T16:15:02;18.00;99.90
25668;DHT22;18003;-33.830;151.202;2022-12-18T16:17:32;18.00;99.90
25668;DHT22;18003;-33.830;151.202;2022-12-18T16:20:02;18.00;99.90
25668;DHT22;18003;-33.830;151.202;2022-12-18T16:22:32;18.00;99.90
25668;DHT22;18003;-33.830;151.202;2022-12-18T16:25:02;18.00;99.90
25668;DHT22;18003;-33.830;151.202;2022-12-18T16:27:33;18.00;99.90
25668;DHT22;18003;-33.830;151.202;2022-12-18T16:30:04;18.10;99.90
25668;DHT22;18003;-33.830;151.202;2022-12-18T16:32:34;18.00;99.90
25668;DHT22;18003;-33.830;151.202;2022-12-18T16:35:04;18.00;99.90
25668;DHT22;18003;-33.830;151.202;2022-12-18T16:37:34;18.00;99.90
25668;DHT22;18003;-33.830;151.202;2022-12-18T16:40:06;18.00;99.90
25668;DHT22;18003;-33.830;151.202;2022-12-18T16:42:37;18.00;99.90
25668;DHT22;18003;-33.830;151.202;2022-12-18T16:45:09;18.00;99.90
25668;DHT22;18003;-33.830;151.202;2022-12-18T16:47:39;18.00;99.90